sensor_id;sensor_type;location;lat;lon;timestamp;temperature;humidity
9497;DHT22;4786;51.270;4.456;2022-08-16T00:00:08;21.00;99.90
9497;DHT22;4786;51.270;4.456;2022-08-16T00:02:40;21.10;99.90
9497;DHT22;4786;51.270;4.456;2022-08-16T00:05:08;21.10;99.90
9497;DHT22;4786;51.270;4.456;2022-08-16T00:07:35;21.10;99.90
9497;DHT22;4786;51.270;4.456;2022-08-16T00:10:03;21.10;99.90
9497;DHT22;4786;51.270;4.456;2022-08-16T00:12:30;21.10;99.90
9497;DHT22;4786;51.270;4.456;2022-08-16T00:14:58;21.10;99.90
9497;DHT22;4786;51.270;4.456;2022-08-16T00:17:25;21.00;99.90
9497;DHT22;4786;51.270;4.456;2022-08-16T00:19:51;21.00;99.90
9497;DHT22;4786;51.270;4.456;2022-08-16T00:22:18;21.00;99.90
9497;DHT22;4786;51.270;4.456;2022-08-16T00:24:44;21.00;99.90
9497;DHT22;4786;51.270;4.456;2022-08-16T00:27:10;21.00;99.90
9497;DHT22;4786;51.270;4.456;2022-08-16T00:29:36;21.00;99.90
9497;DHT22;4786;51.270;4.456;2022-08-16T00:32:04;21.00;99.90
9497;DHT22;4786;51.270;4.456;2022-08-16T00:34:30;21.10;99.90
9497;DHT22;4786;51.270;4.456;2022-08-16T00:36:56;21.00;99.90
9497;DHT22;4786;51.270;4.456;2022-08-16T00:39:22;21.10;99.90
9497;DHT22;4786;51.270;4.456;2022-08-16T00:41:49;21.20;99.90
9497;DHT22;4786;51.270;4.456;2022-08-16T00:44:19;21.20;99.90
9497;DHT22;4786;51.270;4.456;2022-08-16T00:46:58;21.10;99.90
9497;DHT22;4786;51.270;4.456;2022-08-16T00:49:26;20.90;99.90
9497;DHT22;4786;51.270;4.456;2022-08-16T00:51:52;20.80;99.90
9497;DHT22;4786;51.270;4.456;2022-08-16T00:54:20;20.70;99.90
9497;DHT22;4786;51.270;4.456;2022-08-16T00:56:49;20.70;99.90
9497;DHT22;4786;51.270;4.456;2022-08-16T00:59:17;20.60;99.90
9497;DHT22;4786;51.270;4.456;2022-08-16T01:01:44;20.50;99.90
9497;DHT22;4786;51.270;4.456;2022-08-16T01:04:11;20.50;99.90
9497;DHT22;4786;51.270;4.456;2022-08-16T01:06:38;20.40;99.90
9497;DHT22;4786;51.270;4.456;2022-08-16T01:09:05;20.30;99.90
9497;DHT22;4786;51.270;4.456;2022-08-16T01:11:35;20.30;99.90
9497;DHT22;4786;51.270;4.456;2022-08-16T01:16:42;20.30;99.90
9497;DHT22;4786;51.270;4.456;2022-08-16T01:19:30;20.30;99.90
9497;DHT22;4786;51.270;4.456;2022-08-16T01:25:09;20.30;99.90
9497;DHT22;4786;51.270;4.456;2022-08-16T01:27:41;20.30;99.90
9497;DHT22;4786;51.270;4.456;2022-08-16T01:30:18;20.40;99.90
9497;DHT22;4786;51.270;4.456;2022-08-16T01:32:44;20.40;99.90
9497;DHT22;4786;51.270;4.456;2022-08-16T01:35:15;20.50;99.90
9497;DHT22;4786;51.270;4.456;2022-08-16T01:37:46;20.50;99.90
9497;DHT22;4786;51.270;4.456;2022-08-16T01:40:15;20.50;99.90
9497;DHT22;4786;51.270;4.456;2022-08-16T01:42:42;20.40;99.90
9497;DHT22;4786;51.270;4.456;2022-08-16T01:45:09;20.40;99.90
9497;DHT22;4786;51.270;4.456;2022-08-16T01:47:36;20.40;99.90
9497;DHT22;4786;51.270;4.456;2022-08-16T01:50:05;20.30;99.90
9497;DHT22;4786;51.270;4.456;2022-08-16T01:52:31;20.30;99.90
9497;DHT22;4786;51.270;4.456;2022-08-16T01:54:58;20.20;99.90
9497;DHT22;4786;51.270;4.456;2022-08-16T01:57:25;20.10;99.90
9497;DHT22;4786;51.270;4.456;2022-08-16T01:59:51;19.90;99.90
9497;DHT22;4786;51.270;4.456;2022-08-16T02:02:18;19.90;99.90
9497;DHT22;4786;51.270;4.456;2022-08-16T02:04:43;19.80;99.90
9497;DHT22;4786;51.270;4.456;2022-08-16T02:07:09;19.60;99.90
9497;DHT22;4786;51.270;4.456;2022-08-16T02:09:38;19.80;99.90
9497;DHT22;4786;51.270;4.456;2022-08-16T02:12:07;19.70;99.90
9497;DHT22;4786;51.270;4.456;2022-08-16T02:14:35;19.70;99.90
9497;DHT22;4786;51.270;4.456;2022-08-16T02:17:03;19.70;99.90
9497;DHT22;4786;51.270;4.456;2022-08-16T02:19:31;19.70;99.90
9497;DHT22;4786;51.270;4.456;2022-08-16T02:21:59;19.80;99.90
9497;DHT22;4786;51.270;4.456;2022-08-16T02:24:25;19.90;99.90
9497;DHT22;4786;51.270;4.456;2022-08-16T02:26:51;19.90;99.90
9497;DHT22;4786;51.270;4.456;2022-08-16T02:29:18;20.00;99.90
9497;DHT22;4786;51.270;4.456;2022-08-16T02:31:45;20.00;99.90
9497;DHT22;4786;51.270;4.456;2022-08-16T02:34:12;20.00;99.90
9497;DHT22;4786;51.270;4.456;2022-08-16T02:36:40;20.00;99.90
9497;DHT22;4786;51.270;4.456;2022-08-16T02:39:07;20.00;99.90
9497;DHT22;4786;51.270;4.456;2022-08-16T02:41:35;20.10;99.90
9497;DHT22;4786;51.270;4.456;2022-08-16T02:44:03;20.00;99.90
9497;DHT22;4786;51.270;4.456;2022-08-16T02:46:30;20.00;99.90
9497;DHT22;4786;51.270;4.456;2022-08-16T02:48:57;19.90;99.90
9497;DHT22;4786;51.270;4.456;2022-08-16T02:51:23;19.70;99.90
9497;DHT22;4786;51.270;4.456;2022-08-16T02:53:49;19.60;99.90
9497;DHT22;4786;51.270;4.456;2022-08-16T02:56:17;19.50;99.90
9497;DHT22;4786;51.270;4.456;2022-08-16T02:58:47;19.50;99.90
9497;DHT22;4786;51.270;4.456;2022-08-16T03:01:17;19.60;99.90
9497;DHT22;4786;51.270;4.456;2022-08-16T03:03:43;19.80;99.90
9497;DHT22;4786;51.270;4.456;2022-08-16T03:06:09;19.80;99.90
9497;DHT22;4786;51.270;4.456;2022-08-16T03:08:36;19.80;99.90
9497;DHT22;4786;51.270;4.456;2022-08-16T03:11:02;19.80;99.90
9497;DHT22;4786;51.270;4.456;2022-08-16T03:13:28;19.80;99.90
9497;DHT22;4786;51.270;4.456;2022-08-16T03:15:54;19.80;99.90
9497;DHT22;4786;51.270;4.456;2022-08-16T03:18:20;19.70;99.90
9497;DHT22;4786;51.270;4.456;2022-08-16T03:20:46;19.70;99.90
9497;DHT22;4786;51.270;4.456;2022-08-16T03:23:12;19.70;99.90
9497;DHT22;4786;51.270;4.456;2022-08-16T03:25:38;19.70;99.90
9497;DHT22;4786;51.270;4.456;2022-08-16T03:28:06;19.80;99.90
9497;DHT22;4786;51.270;4.456;2022-08-16T03:30:34;19.70;99.90
9497;DHT22;4786;51.270;4.456;2022-08-16T03:33:01;19.70;99.90
9497;DHT22;4786;51.270;4.456;2022-08-16T03:35:30;19.80;99.90
9497;DHT22;4786;51.270;4.456;2022-08-16T03:37:59;19.70;99.90
9497;DHT22;4786;51.270;4.456;2022-08-16T03:40:26;19.70;99.90
9497;DHT22;4786;51.270;4.456;2022-08-16T03:42:52;19.70;99.90
9497;DHT22;4786;51.270;4.456;2022-08-16T03:45:19;19.70;99.90
9497;DHT22;4786;51.270;4.456;2022-08-16T03:47:46;19.60;99.90
9497;DHT22;4786;51.270;4.456;2022-08-16T03:50:13;19.60;99.90
9497;DHT22;4786;51.270;4.456;2022-08-16T03:52:41;19.60;99.90
9497;DHT22;4786;51.270;4.456;2022-08-16T03:55:09;19.60;99.90
9497;DHT22;4786;51.270;4.456;2022-08-16T03:57:35;19.50;99.90
9497;DHT22;4786;51.270;4.456;2022-08-16T04:00:11;19.60;99.90
9497;DHT22;4786;51.270;4.456;2022-08-16T04:02:38;19.60;99.90
9497;DHT22;4786;51.270;4.456;2022-08-16T04:05:05;19.60;99.90
9497;DHT22;4786;51.270;4.456;2022-08-16T04:07:31;19.60;99.90
9497;DHT22;4786;51.270;4.456;2022-08-16T04:09:57;19.70;99.90
9497;DHT22;4786;51.270;4.456;2022-08-16T04:12:23;19.70;99.90
9497;DHT22;4786;51.270;4.456;2022-08-16T04:14:48;19.60;99.90
9497;DHT22;4786;51.270;4.456;2022-08-16T04:17:15;19.60;99.90
9497;DHT22;4786;51.270;4.456;2022-08-16T04:19:41;19.60;99.90
9497;DHT22;4786;51.270;4.456;2022-08-16T04:22:09;19.60;99.90
9497;DHT22;4786;51.270;4.456;2022-08-16T04:24:36;19.60;99.90
9497;DHT22;4786;51.270;4.456;2022-08-16T04:27:03;19.60;99.90
9497;DHT22;4786;51.270;4.456;2022-08-16T04:29:29;19.60;99.90
9497;DHT22;4786;51.270;4.456;2022-08-16T04:31:55;19.70;99.90
9497;DHT22;4786;51.270;4.456;2022-08-16T04:34:22;19.80;99.90
9497;DHT22;4786;51.270;4.456;2022-08-16T04:36:49;19.70;99.90
9497;DHT22;4786;51.270;4.456;2022-08-16T04:39:15;19.60;99.90
9497;DHT22;4786;51.270;4.456;2022-08-16T04:41:41;19.70;99.90
9497;DHT22;4786;51.270;4.456;2022-08-16T04:44:07;19.60;99.90
9497;DHT22;4786;51.270;4.456;2022-08-16T04:46:33;19.60;99.90
9497;DHT22;4786;51.270;4.456;2022-08-16T04:48:59;19.70;99.90
9497;DHT22;4786;51.270;4.456;2022-08-16T04:51:25;19.70;99.90
9497;DHT22;4786;51.270;4.456;2022-08-16T04:53:51;19.70;99.90
9497;DHT22;4786;51.270;4.456;2022-08-16T04:56:18;19.70;99.90
9497;DHT22;4786;51.270;4.456;2022-08-16T04:58:45;19.80;99.90
9497;DHT22;4786;51.270;4.456;2022-08-16T05:01:10;19.80;99.90
9497;DHT22;4786;51.270;4.456;2022-08-16T05:03:37;19.80;99.90
9497;DHT22;4786;51.270;4.456;2022-08-16T05:06:03;19.90;99.90
9497;DHT22;4786;51.270;4.456;2022-08-16T05:08:29;19.90;99.90
9497;DHT22;4786;51.270;4.456;2022-08-16T05:10:59;20.00;99.90
9497;DHT22;4786;51.270;4.456;2022-08-16T05:13:26;20.00;99.90
9497;DHT22;4786;51.270;4.456;2022-08-16T05:15:51;20.10;99.90
9497;DHT22;4786;51.270;4.456;2022-08-16T05:18:18;20.20;99.90
9497;DHT22;4786;51.270;4.456;2022-08-16T05:20:43;20.20;99.90
9497;DHT22;4786;51.270;4.456;2022-08-16T05:23:09;20.30;99.90
9497;DHT22;4786;51.270;4.456;2022-08-16T05:25:36;20.40;99.90
9497;DHT22;4786;51.270;4.456;2022-08-16T05:28:01;20.50;99.90
9497;DHT22;4786;51.270;4.456;2022-08-16T05:30:27;20.60;99.90
9497;DHT22;4786;51.270;4.456;2022-08-16T05:32:53;20.60;99.90
9497;DHT22;4786;51.270;4.456;2022-08-16T05:35:19;20.70;99.90
9497;DHT22;4786;51.270;4.456;2022-08-16T05:37:45;20.80;99.90
9497;DHT22;4786;51.270;4.456;2022-08-16T05:40:13;20.90;99.90
9497;DHT22;4786;51.270;4.456;2022-08-16T05:42:39;21.10;99.90
9497;DHT22;4786;51.270;4.456;2022-08-16T05:45:05;21.80;99.90
9497;DHT22;4786;51.270;4.456;2022-08-16T05:47:32;22.80;99.90
9497;DHT22;4786;51.270;4.456;2022-08-16T05:49:58;23.80;99.90
9497;DHT22;4786;51.270;4.456;2022-08-16T05:52:24;24.80;99.90
9497;DHT22;4786;51.270;4.456;2022-08-16T05:54:50;25.90;99.90
9497;DHT22;4786;51.270;4.456;2022-08-16T05:57:17;26.80;99.90
9497;DHT22;4786;51.270;4.456;2022-08-16T05:59:44;27.30;99.90
9497;DHT22;4786;51.270;4.456;2022-08-16T06:02:11;27.40;99.90
9497;DHT22;4786;51.270;4.456;2022-08-16T06:04:38;27.40;99.90
9497;DHT22;4786;51.270;4.456;2022-08-16T06:07:05;27.10;99.90
9497;DHT22;4786;51.270;4.456;2022-08-16T06:09:32;26.70;99.90
9497;DHT22;4786;51.270;4.456;2022-08-16T06:11:59;26.30;99.90
9497;DHT22;4786;51.270;4.456;2022-08-16T06:14:29;26.40;99.90
9497;DHT22;4786;51.270;4.456;2022-08-16T06:16:57;26.90;99.90
9497;DHT22;4786;51.270;4.456;2022-08-16T06:19:23;27.70;99.90
9497;DHT22;4786;51.270;4.456;2022-08-16T06:21:49;28.20;99.90
9497;DHT22;4786;51.270;4.456;2022-08-16T06:24:16;28.70;99.90
9497;DHT22;4786;51.270;4.456;2022-08-16T06:26:42;28.90;99.90
9497;DHT22;4786;51.270;4.456;2022-08-16T06:29:08;28.50;99.90
9497;DHT22;4786;51.270;4.456;2022-08-16T06:31:33;28.00;99.90
9497;DHT22;4786;51.270;4.456;2022-08-16T06:33:59;28.10;99.90
9497;DHT22;4786;51.270;4.456;2022-08-16T06:36:25;28.50;99.90
9497;DHT22;4786;51.270;4.456;2022-08-16T06:38:51;29.60;99.90
9497;DHT22;4786;51.270;4.456;2022-08-16T06:41:17;30.70;99.90
9497;DHT22;4786;51.270;4.456;2022-08-16T06:43:43;31.80;99.90
9497;DHT22;4786;51.270;4.456;2022-08-16T06:46:31;32.70;99.70
9497;DHT22;4786;51.270;4.456;2022-08-16T06:49:03;33.30;97.30
9497;DHT22;4786;51.270;4.456;2022-08-16T06:51:29;33.70;96.40
9497;DHT22;4786;51.270;4.456;2022-08-16T06:53:56;33.30;95.10
9497;DHT22;4786;51.270;4.456;2022-08-16T06:56:22;32.70;95.00
9497;DHT22;4786;51.270;4.456;2022-08-16T06:58:48;32.20;96.40
9497;DHT22;4786;51.270;4.456;2022-08-16T07:01:14;31.70;96.50
9497;DHT22;4786;51.270;4.456;2022-08-16T07:03:40;31.10;96.90
9497;DHT22;4786;51.270;4.456;2022-08-16T07:06:06;30.40;97.70
9497;DHT22;4786;51.270;4.456;2022-08-16T07:08:32;29.80;99.00
9497;DHT22;4786;51.270;4.456;2022-08-16T07:10:58;29.10;99.90
9497;DHT22;4786;51.270;4.456;2022-08-16T07:13:25;28.50;99.90
9497;DHT22;4786;51.270;4.456;2022-08-16T07:15:51;28.10;99.90
9497;DHT22;4786;51.270;4.456;2022-08-16T07:18:18;27.60;99.90
9497;DHT22;4786;51.270;4.456;2022-08-16T07:20:46;27.30;99.90
9497;DHT22;4786;51.270;4.456;2022-08-16T07:23:12;27.00;99.90
9497;DHT22;4786;51.270;4.456;2022-08-16T07:25:38;26.60;99.90
9497;DHT22;4786;51.270;4.456;2022-08-16T07:28:04;26.20;99.90
9497;DHT22;4786;51.270;4.456;2022-08-16T07:30:31;26.00;99.90
9497;DHT22;4786;51.270;4.456;2022-08-16T07:32:58;25.80;99.90
9497;DHT22;4786;51.270;4.456;2022-08-16T07:35:24;25.60;99.90
9497;DHT22;4786;51.270;4.456;2022-08-16T07:37:50;25.50;99.90
9497;DHT22;4786;51.270;4.456;2022-08-16T07:40:16;25.40;99.90
9497;DHT22;4786;51.270;4.456;2022-08-16T07:42:42;25.30;99.90
9497;DHT22;4786;51.270;4.456;2022-08-16T07:45:08;25.20;99.90
9497;DHT22;4786;51.270;4.456;2022-08-16T07:47:34;25.20;99.90
9497;DHT22;4786;51.270;4.456;2022-08-16T07:50:01;25.20;99.90
9497;DHT22;4786;51.270;4.456;2022-08-16T07:52:28;25.20;99.90
9497;DHT22;4786;51.270;4.456;2022-08-16T07:54:53;25.20;99.90
9497;DHT22;4786;51.270;4.456;2022-08-16T07:57:19;25.30;99.90
9497;DHT22;4786;51.270;4.456;2022-08-16T07:59:45;25.40;99.90
9497;DHT22;4786;51.270;4.456;2022-08-16T08:02:11;25.70;99.90
9497;DHT22;4786;51.270;4.456;2022-08-16T08:04:37;25.90;99.90
9497;DHT22;4786;51.270;4.456;2022-08-16T08:07:03;26.00;99.90
9497;DHT22;4786;51.270;4.456;2022-08-16T08:09:29;26.00;99.90
9497;DHT22;4786;51.270;4.456;2022-08-16T08:11:54;26.00;99.90
9497;DHT22;4786;51.270;4.456;2022-08-16T08:14:20;25.90;99.90
9497;DHT22;4786;51.270;4.456;2022-08-16T08:16:46;26.00;99.90
9497;DHT22;4786;51.270;4.456;2022-08-16T08:19:14;26.10;99.90
9497;DHT22;4786;51.270;4.456;2022-08-16T08:21:41;26.00;99.90
9497;DHT22;4786;51.270;4.456;2022-08-16T08:24:08;26.10;99.90
9497;DHT22;4786;51.270;4.456;2022-08-16T08:26:34;26.10;99.90
9497;DHT22;4786;51.270;4.456;2022-08-16T08:29:03;26.20;99.90
9497;DHT22;4786;51.270;4.456;2022-08-16T08:31:29;26.40;99.90
9497;DHT22;4786;51.270;4.456;2022-08-16T08:33:55;26.60;99.90
9497;DHT22;4786;51.270;4.456;2022-08-16T08:36:27;26.70;99.90
9497;DHT22;4786;51.270;4.456;2022-08-16T08:38:53;26.90;99.90
9497;DHT22;4786;51.270;4.456;2022-08-16T08:41:19;27.00;99.90
9497;DHT22;4786;51.270;4.456;2022-08-16T08:43:45;27.00;99.90
9497;DHT22;4786;51.270;4.456;2022-08-16T08:46:11;26.90;99.90
9497;DHT22;4786;51.270;4.456;2022-08-16T08:48:38;26.80;99.90
9497;DHT22;4786;51.270;4.456;2022-08-16T08:51:06;26.90;99.90
9497;DHT22;4786;51.270;4.456;2022-08-16T08:53:33;26.90;99.90
9497;DHT22;4786;51.270;4.456;2022-08-16T08:56:00;26.90;99.90
9497;DHT22;4786;51.270;4.456;2022-08-16T08:58:26;27.10;99.90
9497;DHT22;4786;51.270;4.456;2022-08-16T09:00:52;27.20;99.90
9497;DHT22;4786;51.270;4.456;2022-08-16T09:03:18;27.20;99.90
9497;DHT22;4786;51.270;4.456;2022-08-16T09:05:45;27.30;99.90
9497;DHT22;4786;51.270;4.456;2022-08-16T09:08:11;27.50;99.90
9497;DHT22;4786;51.270;4.456;2022-08-16T09:10:37;27.70;99.90
9497;DHT22;4786;51.270;4.456;2022-08-16T09:13:03;27.80;99.90
9497;DHT22;4786;51.270;4.456;2022-08-16T09:15:30;27.80;99.90
9497;DHT22;4786;51.270;4.456;2022-08-16T09:17:57;27.80;99.90
9497;DHT22;4786;51.270;4.456;2022-08-16T09:20:24;27.80;99.90
9497;DHT22;4786;51.270;4.456;2022-08-16T09:22:50;27.90;99.90
9497;DHT22;4786;51.270;4.456;2022-08-16T09:25:16;27.90;99.90
9497;DHT22;4786;51.270;4.456;2022-08-16T09:27:42;28.00;99.90
9497;DHT22;4786;51.270;4.456;2022-08-16T09:30:09;28.10;99.90
9497;DHT22;4786;51.270;4.456;2022-08-16T09:32:36;28.10;99.90
9497;DHT22;4786;51.270;4.456;2022-08-16T09:35:03;28.10;99.90
9497;DHT22;4786;51.270;4.456;2022-08-16T09:37:30;28.20;99.90
9497;DHT22;4786;51.270;4.456;2022-08-16T09:39:57;28.20;99.90
9497;DHT22;4786;51.270;4.456;2022-08-16T09:42:24;28.30;99.90
9497;DHT22;4786;51.270;4.456;2022-08-16T09:44:50;28.40;99.90
9497;DHT22;4786;51.270;4.456;2022-08-16T09:47:16;28.40;99.90
9497;DHT22;4786;51.270;4.456;2022-08-16T09:49:43;28.40;99.90
9497;DHT22;4786;51.270;4.456;2022-08-16T09:52:09;28.50;99.90
9497;DHT22;4786;51.270;4.456;2022-08-16T09:54:37;28.60;99.90
9497;DHT22;4786;51.270;4.456;2022-08-16T09:57:05;28.70;99.90
9497;DHT22;4786;51.270;4.456;2022-08-16T09:59:31;28.90;99.90
9497;DHT22;4786;51.270;4.456;2022-08-16T10:01:58;29.00;99.90
9497;DHT22;4786;51.270;4.456;2022-08-16T10:04:25;29.30;99.90
9497;DHT22;4786;51.270;4.456;2022-08-16T10:06:55;29.50;99.90
9497;DHT22;4786;51.270;4.456;2022-08-16T10:09:21;29.80;99.90
9497;DHT22;4786;51.270;4.456;2022-08-16T10:11:48;30.00;99.90
9497;DHT22;4786;51.270;4.456;2022-08-16T10:14:32;30.20;99.90
9497;DHT22;4786;51.270;4.456;2022-08-16T10:17:02;30.40;99.90
9497;DHT22;4786;51.270;4.456;2022-08-16T10:19:30;30.50;99.90
9497;DHT22;4786;51.270;4.456;2022-08-16T10:21:56;30.80;99.90
9497;DHT22;4786;51.270;4.456;2022-08-16T10:24:23;31.00;99.40
9497;DHT22;4786;51.270;4.456;2022-08-16T10:26:49;31.10;99.80
9497;DHT22;4786;51.270;4.456;2022-08-16T10:29:15;31.10;98.40
9497;DHT22;4786;51.270;4.456;2022-08-16T10:31:42;31.10;97.20
9497;DHT22;4786;51.270;4.456;2022-08-16T10:34:07;31.10;96.40
9497;DHT22;4786;51.270;4.456;2022-08-16T10:36:34;31.10;96.40
9497;DHT22;4786;51.270;4.456;2022-08-16T10:39:00;31.20;97.60
9497;DHT22;4786;51.270;4.456;2022-08-16T10:41:26;31.30;96.60
9497;DHT22;4786;51.270;4.456;2022-08-16T10:43:52;31.40;96.50
9497;DHT22;4786;51.270;4.456;2022-08-16T10:46:18;31.50;95.90
9497;DHT22;4786;51.270;4.456;2022-08-16T10:48:45;31.50;94.70
9497;DHT22;4786;51.270;4.456;2022-08-16T10:51:12;31.50;94.20
9497;DHT22;4786;51.270;4.456;2022-08-16T10:53:38;31.50;93.80
9497;DHT22;4786;51.270;4.456;2022-08-16T10:56:06;31.40;92.90
9497;DHT22;4786;51.270;4.456;2022-08-16T10:58:33;31.40;93.10
9497;DHT22;4786;51.270;4.456;2022-08-16T11:00:59;31.40;93.30
9497;DHT22;4786;51.270;4.456;2022-08-16T11:03:28;31.40;94.00
9497;DHT22;4786;51.270;4.456;2022-08-16T11:05:54;31.30;93.10
9497;DHT22;4786;51.270;4.456;2022-08-16T11:08:20;31.10;90.80
9497;DHT22;4786;51.270;4.456;2022-08-16T11:10:46;31.10;92.10
9497;DHT22;4786;51.270;4.456;2022-08-16T11:13:21;31.00;92.20
9497;DHT22;4786;51.270;4.456;2022-08-16T11:15:48;30.80;91.30
9497;DHT22;4786;51.270;4.456;2022-08-16T11:18:14;30.80;92.00
9497;DHT22;4786;51.270;4.456;2022-08-16T11:20:41;30.60;92.60
9497;DHT22;4786;51.270;4.456;2022-08-16T11:23:08;30.50;91.80
9497;DHT22;4786;51.270;4.456;2022-08-16T11:25:34;30.40;92.20
9497;DHT22;4786;51.270;4.456;2022-08-16T11:28:01;30.40;91.80
9497;DHT22;4786;51.270;4.456;2022-08-16T11:30:28;30.40;92.80
9497;DHT22;4786;51.270;4.456;2022-08-16T11:32:55;30.40;92.10
9497;DHT22;4786;51.270;4.456;2022-08-16T11:35:24;30.60;92.70
9497;DHT22;4786;51.270;4.456;2022-08-16T11:38:01;30.70;92.40
9497;DHT22;4786;51.270;4.456;2022-08-16T11:40:31;30.80;91.70
9497;DHT22;4786;51.270;4.456;2022-08-16T11:42:57;30.90;91.40
9497;DHT22;4786;51.270;4.456;2022-08-16T11:45:23;30.80;91.20
9497;DHT22;4786;51.270;4.456;2022-08-16T11:47:49;30.70;90.70
9497;DHT22;4786;51.270;4.456;2022-08-16T11:50:16;30.60;91.70
9497;DHT22;4786;51.270;4.456;2022-08-16T11:52:42;30.50;92.10
9497;DHT22;4786;51.270;4.456;2022-08-16T11:55:11;30.40;91.70
9497;DHT22;4786;51.270;4.456;2022-08-16T11:57:38;30.30;92.80
9497;DHT22;4786;51.270;4.456;2022-08-16T12:00:08;30.20;92.50
9497;DHT22;4786;51.270;4.456;2022-08-16T12:02:36;30.30;93.90
9497;DHT22;4786;51.270;4.456;2022-08-16T12:05:07;30.40;91.80
9497;DHT22;4786;51.270;4.456;2022-08-16T12:07:33;30.60;91.50
9497;DHT22;4786;51.270;4.456;2022-08-16T12:09:59;30.90;90.60
9497;DHT22;4786;51.270;4.456;2022-08-16T12:12:25;31.20;90.30
9497;DHT22;4786;51.270;4.456;2022-08-16T12:14:52;31.30;89.70
9497;DHT22;4786;51.270;4.456;2022-08-16T12:17:18;31.50;89.70
9497;DHT22;4786;51.270;4.456;2022-08-16T12:19:45;31.70;85.90
9497;DHT22;4786;51.270;4.456;2022-08-16T12:22:11;31.80;88.70
9497;DHT22;4786;51.270;4.456;2022-08-16T12:24:37;31.70;87.50
9497;DHT22;4786;51.270;4.456;2022-08-16T12:27:03;31.50;88.70
9497;DHT22;4786;51.270;4.456;2022-08-16T12:29:29;31.40;87.60
9497;DHT22;4786;51.270;4.456;2022-08-16T12:31:56;31.30;87.00
9497;DHT22;4786;51.270;4.456;2022-08-16T12:34:22;31.30;88.80
9497;DHT22;4786;51.270;4.456;2022-08-16T12:36:48;31.40;87.50
9497;DHT22;4786;51.270;4.456;2022-08-16T12:39:14;31.40;86.40
9497;DHT22;4786;51.270;4.456;2022-08-16T12:41:42;31.40;87.40
9497;DHT22;4786;51.270;4.456;2022-08-16T12:44:11;31.50;88.40
9497;DHT22;4786;51.270;4.456;2022-08-16T12:46:37;31.50;89.10
9497;DHT22;4786;51.270;4.456;2022-08-16T12:49:03;31.50;87.50
9497;DHT22;4786;51.270;4.456;2022-08-16T12:51:40;31.40;89.80
9497;DHT22;4786;51.270;4.456;2022-08-16T12:54:07;31.30;88.00
9497;DHT22;4786;51.270;4.456;2022-08-16T12:56:36;31.20;90.10
9497;DHT22;4786;51.270;4.456;2022-08-16T12:59:07;31.10;87.30
9497;DHT22;4786;51.270;4.456;2022-08-16T13:01:34;31.10;88.90
9497;DHT22;4786;51.270;4.456;2022-08-16T13:04:02;31.10;90.40
9497;DHT22;4786;51.270;4.456;2022-08-16T13:06:28;31.10;91.00
9497;DHT22;4786;51.270;4.456;2022-08-16T13:08:55;31.10;90.70
9497;DHT22;4786;51.270;4.456;2022-08-16T13:11:36;31.10;90.90
9497;DHT22;4786;51.270;4.456;2022-08-16T13:14:05;31.20;91.30
9497;DHT22;4786;51.270;4.456;2022-08-16T13:16:31;31.20;89.80
9497;DHT22;4786;51.270;4.456;2022-08-16T13:18:56;31.30;87.30
9497;DHT22;4786;51.270;4.456;2022-08-16T13:21:22;31.30;90.40
9497;DHT22;4786;51.270;4.456;2022-08-16T13:23:48;31.20;88.10
9497;DHT22;4786;51.270;4.456;2022-08-16T13:26:14;31.40;89.00
9497;DHT22;4786;51.270;4.456;2022-08-16T13:28:40;31.50;89.30
9497;DHT22;4786;51.270;4.456;2022-08-16T13:31:06;31.60;89.40
9497;DHT22;4786;51.270;4.456;2022-08-16T13:33:33;31.70;85.80
9497;DHT22;4786;51.270;4.456;2022-08-16T13:36:08;31.70;86.70
9497;DHT22;4786;51.270;4.456;2022-08-16T13:38:35;31.80;87.80
9497;DHT22;4786;51.270;4.456;2022-08-16T13:41:02;32.00;87.00
9497;DHT22;4786;51.270;4.456;2022-08-16T13:43:30;31.90;85.90
9497;DHT22;4786;51.270;4.456;2022-08-16T13:45:57;32.00;86.60
9497;DHT22;4786;51.270;4.456;2022-08-16T13:48:26;31.90;86.10
9497;DHT22;4786;51.270;4.456;2022-08-16T13:50:54;31.90;86.50
9497;DHT22;4786;51.270;4.456;2022-08-16T13:53:20;31.70;85.30
9497;DHT22;4786;51.270;4.456;2022-08-16T13:55:46;31.70;86.90
9497;DHT22;4786;51.270;4.456;2022-08-16T13:58:13;31.70;86.10
9497;DHT22;4786;51.270;4.456;2022-08-16T14:00:39;31.60;85.90
9497;DHT22;4786;51.270;4.456;2022-08-16T14:03:07;31.60;87.20
9497;DHT22;4786;51.270;4.456;2022-08-16T14:05:32;31.50;86.90
9497;DHT22;4786;51.270;4.456;2022-08-16T14:07:58;31.40;84.80
9497;DHT22;4786;51.270;4.456;2022-08-16T14:10:23;31.30;85.40
9497;DHT22;4786;51.270;4.456;2022-08-16T14:12:50;31.20;87.50
9497;DHT22;4786;51.270;4.456;2022-08-16T14:15:17;31.20;87.80
9497;DHT22;4786;51.270;4.456;2022-08-16T14:17:44;31.20;88.40
9497;DHT22;4786;51.270;4.456;2022-08-16T14:20:10;31.10;86.70
9497;DHT22;4786;51.270;4.456;2022-08-16T14:22:38;30.90;84.70
9497;DHT22;4786;51.270;4.456;2022-08-16T14:25:08;30.90;88.00
9497;DHT22;4786;51.270;4.456;2022-08-16T14:27:35;30.80;86.10
9497;DHT22;4786;51.270;4.456;2022-08-16T14:30:03;30.80;85.20
9497;DHT22;4786;51.270;4.456;2022-08-16T14:32:31;30.80;86.60
9497;DHT22;4786;51.270;4.456;2022-08-16T14:34:58;30.80;88.60
9497;DHT22;4786;51.270;4.456;2022-08-16T14:37:24;30.70;89.20
9497;DHT22;4786;51.270;4.456;2022-08-16T14:39:50;30.70;85.40
9497;DHT22;4786;51.270;4.456;2022-08-16T14:42:20;30.60;84.20
9497;DHT22;4786;51.270;4.456;2022-08-16T14:44:47;30.70;86.60
9497;DHT22;4786;51.270;4.456;2022-08-16T14:47:15;30.80;85.80
9497;DHT22;4786;51.270;4.456;2022-08-16T14:49:41;30.90;89.10
9497;DHT22;4786;51.270;4.456;2022-08-16T14:52:14;31.00;84.40
9497;DHT22;4786;51.270;4.456;2022-08-16T14:54:41;31.10;82.00
9497;DHT22;4786;51.270;4.456;2022-08-16T14:57:08;31.20;82.00
9497;DHT22;4786;51.270;4.456;2022-08-16T14:59:34;31.30;81.80
9497;DHT22;4786;51.270;4.456;2022-08-16T15:02:00;31.40;80.90
9497;DHT22;4786;51.270;4.456;2022-08-16T15:04:31;31.50;80.70
9497;DHT22;4786;51.270;4.456;2022-08-16T15:06:57;31.50;82.40
9497;DHT22;4786;51.270;4.456;2022-08-16T15:09:23;31.40;78.50
9497;DHT22;4786;51.270;4.456;2022-08-16T15:11:50;31.30;80.00
9497;DHT22;4786;51.270;4.456;2022-08-16T15:14:16;31.30;82.60
9497;DHT22;4786;51.270;4.456;2022-08-16T15:16:42;31.30;82.00
9497;DHT22;4786;51.270;4.456;2022-08-16T15:19:08;31.30;82.50
9497;DHT22;4786;51.270;4.456;2022-08-16T15:21:34;31.30;83.80
9497;DHT22;4786;51.270;4.456;2022-08-16T15:24:00;31.20;82.20
9497;DHT22;4786;51.270;4.456;2022-08-16T15:26:26;31.20;81.90
9497;DHT22;4786;51.270;4.456;2022-08-16T15:28:52;31.10;85.40
9497;DHT22;4786;51.270;4.456;2022-08-16T15:31:19;31.10;83.10
9497;DHT22;4786;51.270;4.456;2022-08-16T15:33:47;31.00;84.20
9497;DHT22;4786;51.270;4.456;2022-08-16T15:36:15;30.90;82.20
9497;DHT22;4786;51.270;4.456;2022-08-16T15:38:48;30.70;85.00
9497;DHT22;4786;51.270;4.456;2022-08-16T15:44:11;30.50;85.10
9497;DHT22;4786;51.270;4.456;2022-08-16T15:46:39;30.40;82.60
9497;DHT22;4786;51.270;4.456;2022-08-16T15:49:05;30.30;81.50
9497;DHT22;4786;51.270;4.456;2022-08-16T15:51:31;30.30;81.80
9497;DHT22;4786;51.270;4.456;2022-08-16T15:53:56;30.30;83.10
9497;DHT22;4786;51.270;4.456;2022-08-16T15:56:23;30.20;85.00
9497;DHT22;4786;51.270;4.456;2022-08-16T15:58:49;30.20;84.20
9497;DHT22;4786;51.270;4.456;2022-08-16T16:01:15;30.30;86.20
9497;DHT22;4786;51.270;4.456;2022-08-16T16:03:47;30.30;85.90
9497;DHT22;4786;51.270;4.456;2022-08-16T16:06:13;30.30;83.20
9497;DHT22;4786;51.270;4.456;2022-08-16T16:08:45;30.30;84.60